createdAt,value
2023-01-24T00:01:29.489Z,104207.22
2023-01-24T00:03:31.528Z,104216.19
2023-01-24T00:05:34.466Z,104212.66
2023-01-24T00:07:36.233Z,104211.78
2023-01-24T00:09:39.457Z,104210.03
2023-01-24T00:11:41.460Z,104214.56
2023-01-24T00:13:43.528Z,104218.22
2023-01-24T00:15:45.579Z,104218.22
2023-01-24T00:17:47.195Z,104214.78
2023-01-24T00:19:48.791Z,104213.91
2023-01-24T00:21:50.443Z,104204.97
2023-01-24T00:23:53.998Z,104212.16
2023-01-24T00:25:56.889Z,104209.63
2023-01-24T00:27:58.543Z,104199.75
2023-01-24T00:30:00.303Z,104191.75
2023-01-24T00:32:01.985Z,104189.94
2023-01-24T00:34:05.602Z,104198.94
2023-01-24T00:36:08.889Z,104205.28
2023-01-24T00:38:10.713Z,104207.09
2023-01-24T00:40:15.395Z,104196.41
2023-01-24T00:42:18.964Z,104205.44
2023-01-24T00:44:21.382Z,104204.56
2023-01-24T00:46:25.849Z,104199.19
2023-01-24T00:48:28.890Z,104199.19
2023-01-24T00:50:30.635Z,104203.69
2023-01-24T00:52:32.320Z,104205.50
2023-01-24T00:54:34.264Z,104201.94
2023-01-24T00:56:36.030Z,104201.06
2023-01-24T00:58:38.936Z,104197.50
2023-01-24T01:00:40.805Z,104204.63
2023-01-24T01:02:45.266Z,104206.44
2023-01-24T01:04:47.600Z,104201.06
2023-01-24T01:06:49.427Z,104196.56
2023-01-24T01:08:51.617Z,104184.94
2023-01-24T01:10:54.469Z,104190.41
2023-01-24T01:12:57.349Z,104192.06
2023-01-24T01:15:01.743Z,104189.53
2023-01-24T01:17:03.346Z,104186.75
2023-01-24T01:19:07.470Z,104193.09
2023-01-24T01:21:12.552Z,104191.34
2023-01-24T01:23:14.157Z,104183.28
2023-01-24T01:25:15.904Z,104191.41
2023-01-24T01:27:17.650Z,104185.97
2023-01-24T01:29:19.417Z,104182.41
2023-01-24T01:31:25.091Z,104185.16
2023-01-24T01:33:27.436Z,104192.28
2023-01-24T01:35:29.014Z,104191.41
2023-01-24T01:37:30.572Z,104198.69
2023-01-24T01:39:32.199Z,104197.75
2023-01-24T01:41:33.935Z,104187.06
2023-01-24T01:43:35.602Z,104194.19
2023-01-24T01:45:41.400Z,104192.38
2023-01-24T01:47:44.681Z,104182.56
2023-01-24T01:49:51.137Z,104183.44
2023-01-24T01:51:58.796Z,104174.38
2023-01-24T01:54:04.658Z,104187.00
2023-01-24T01:56:11.422Z,104175.34
2023-01-24T01:58:13.190Z,104182.47
2023-01-24T02:00:19.122Z,104187.84
2023-01-24T02:02:23.561Z,104179.78
2023-01-24T02:04:30.889Z,104176.13
2023-01-24T02:06:44.160Z,104176.94
2023-01-24T02:08:45.928Z,104183.34
2023-01-24T02:10:48.594Z,104181.53
2023-01-24T02:12:53.814Z,104181.53
2023-01-24T02:14:59.976Z,104188.72
2023-01-24T02:17:01.738Z,104177.00
2023-01-24T02:19:03.784Z,104181.53
2023-01-24T02:21:09.755Z,104175.19
2023-01-24T02:23:22.529Z,104170.69
2023-01-24T02:25:31.775Z,104172.56
2023-01-24T02:27:35.076Z,104177.84
2023-01-24T02:29:36.952Z,104175.13
2023-01-24T02:31:56.720Z,104176.69
2023-01-24T02:33:58.428Z,104170.53
2023-01-24T02:36:16.488Z,104175.88
2023-01-24T02:38:23.461Z,104181.31
2023-01-24T02:40:27.982Z,104173.16
2023-01-24T02:42:33.957Z,104171.31
2023-01-24T02:44:44.254Z,104170.47
2023-01-24T02:46:45.812Z,104170.47
2023-01-24T02:48:50.906Z,104171.31
2023-01-24T02:50:52.540Z,104172.34
2023-01-24T02:52:55.209Z,104164.22
2023-01-24T02:54:56.743Z,104167.84
2023-01-24T02:56:58.540Z,104164.22
2023-01-24T02:59:00.152Z,104165.16
2023-01-24T03:01:06.201Z,104166.97
2023-01-24T03:03:11.330Z,104165.22
2023-01-24T03:05:13.154Z,104167.13
2023-01-24T03:07:15.126Z,104165.38
2023-01-24T03:09:17.252Z,104172.56
2023-01-24T03:11:18.878Z,104172.56
2023-01-24T03:13:22.009Z,104179.72
2023-01-24T03:15:24.254Z,104171.63
2023-01-24T03:17:27.569Z,104169.81
2023-01-24T03:19:29.635Z,104168.88
2023-01-24T03:21:32.892Z,104164.38
2023-01-24T03:23:36.142Z,104168.78
2023-01-24T03:25:37.964Z,104170.59
2023-01-24T03:27:39.456Z,104171.47
2023-01-24T03:29:41.096Z,104164.38
2023-01-24T03:31:42.694Z,104166.09
2023-01-24T03:33:49.314Z,104173.28
2023-01-24T03:35:52.200Z,104161.69
2023-01-24T03:37:54.021Z,104167.06
2023-01-24T03:39:56.009Z,104159.06
2023-01-24T03:41:59.702Z,104163.50
2023-01-24T03:44:01.271Z,104162.53
2023-01-24T03:46:08.275Z,104166.19
2023-01-24T03:48:10.796Z,104164.28
2023-01-24T03:50:14.054Z,104165.22
2023-01-24T03:52:15.746Z,104170.59
2023-01-24T03:54:17.561Z,104176.84
2023-01-24T03:56:19.334Z,104175.03
2023-01-24T03:58:21.469Z,104165.22
2023-01-24T04:00:23.584Z,104168.78
2023-01-24T04:02:25.263Z,104165.16
2023-01-24T04:04:26.903Z,104174.16
2023-01-24T04:06:29.966Z,104172.34
2023-01-24T04:08:31.775Z,104174.25
2023-01-24T04:10:33.781Z,104175.19
2023-01-24T04:12:35.386Z,104171.69
2023-01-24T04:14:37.386Z,104177.94
2023-01-24T04:16:39.297Z,104185.09
2023-01-24T04:18:40.985Z,104174.47
2023-01-24T04:20:42.713Z,104181.53
2023-01-24T04:22:45.686Z,104191.41
2023-01-24T04:24:47.461Z,104188.72
2023-01-24T04:26:49.006Z,104186.91
2023-01-24T04:28:54.340Z,104189.69
2023-01-24T04:30:59.856Z,104186.03
2023-01-24T04:33:01.637Z,104186.84
2023-01-24T04:35:03.537Z,104191.28
2023-01-24T04:37:05.085Z,104181.38
2023-01-24T04:39:08.188Z,104188.50
2023-01-24T04:41:09.708Z,104187.56
2023-01-24T04:43:11.577Z,104187.56
2023-01-24T04:45:13.545Z,104183.06
2023-01-24T04:47:15.115Z,104182.97
2023-01-24T04:49:16.779Z,104191.91
2023-01-24T04:51:18.593Z,104179.34
2023-01-24T04:53:20.339Z,104180.28
2023-01-24T04:55:23.835Z,104182.03
2023-01-24T04:57:25.787Z,104181.16
2023-01-24T04:59:28.278Z,104183.84
2023-01-24T05:01:31.442Z,104175.75
2023-01-24T05:03:33.302Z,104190.09
2023-01-24T05:05:35.387Z,104188.34
2023-01-24T05:07:37.093Z,104190.97
2023-01-24T05:09:39.036Z,104184.66
2023-01-24T05:11:44.557Z,104187.34
2023-01-24T05:13:46.489Z,104185.50
2023-01-24T05:15:48.286Z,104184.66
2023-01-24T05:17:49.925Z,104179.28
2023-01-24T05:19:51.552Z,104179.28
2023-01-24T05:21:53.150Z,104179.28
2023-01-24T05:23:55.289Z,104189.94
2023-01-24T05:25:59.300Z,104183.69
2023-01-24T05:28:02.234Z,104184.56
2023-01-24T05:30:04.865Z,104186.38
2023-01-24T05:32:06.378Z,104180.97
2023-01-24T05:34:08.013Z,104174.72
2023-01-24T05:36:14.023Z,104185.44
2023-01-24T05:38:15.728Z,104189.00
2023-01-24T05:40:17.771Z,104188.13
2023-01-24T05:42:20.061Z,104177.41
2023-01-24T05:44:22.967Z,104180.06
2023-01-24T05:46:24.683Z,104180.97
2023-01-24T05:48:26.775Z,104183.69
2023-01-24T05:50:28.911Z,104184.56
2023-01-24T05:52:30.631Z,104189.00
2023-01-24T05:54:32.378Z,104193.50
2023-01-24T05:56:34.108Z,104193.50
2023-01-24T05:58:37.261Z,104184.56
2023-01-24T06:00:40.452Z,104187.25
2023-01-24T06:02:42.081Z,104183.69
2023-01-24T06:04:43.870Z,104190.03
2023-01-24T06:06:45.506Z,104195.41
2023-01-24T06:08:47.507Z,104198.09
2023-01-24T06:10:50.014Z,104192.72
2023-01-24T06:12:51.562Z,104197.13
2023-01-24T06:14:53.147Z,104209.69
2023-01-24T06:16:56.230Z,104204.31
2023-01-24T06:18:58.408Z,104197.13
2023-01-24T06:21:06.278Z,104204.31
2023-01-24T06:23:11.554Z,104203.47
2023-01-24T06:25:20.774Z,104205.19
2023-01-24T06:27:22.992Z,104204.31
2023-01-24T06:29:25.839Z,104207.00
2023-01-24T06:31:35.674Z,104202.66
2023-01-24T06:33:48.013Z,104208.84
2023-01-24T06:36:25.834Z,104207.00
2023-01-24T06:38:27.942Z,104208.91
2023-01-24T06:40:30.061Z,104209.78
2023-01-24T06:42:32.486Z,104214.28
2023-01-24T06:44:34.625Z,104216.09
2023-01-24T06:46:36.397Z,104216.97
2023-01-24T06:48:39.511Z,104220.59
2023-01-24T06:50:41.427Z,104235.81
2023-01-24T06:52:45.832Z,104214.28
2023-01-24T06:54:50.119Z,104223.25
2023-01-24T06:56:51.929Z,104223.25
2023-01-24T06:58:54.665Z,104216.03
2023-01-24T07:00:56.680Z,104216.03
2023-01-24T07:03:04.664Z,104216.03
2023-01-24T07:05:08.550Z,104218.72
2023-01-24T07:07:10.460Z,104219.69
2023-01-24T07:09:12.251Z,104209.78
2023-01-24T07:11:13.970Z,104214.22
2023-01-24T07:13:15.622Z,104218.72
2023-01-24T07:15:17.411Z,104216.91
2023-01-24T07:17:19.575Z,104225.00
2023-01-24T07:19:22.920Z,104227.69
2023-01-24T07:21:26.793Z,104216.91
2023-01-24T07:23:28.932Z,104230.38
2023-01-24T07:25:32.126Z,104228.53
2023-01-24T07:27:34.399Z,104227.69
2023-01-24T07:29:35.979Z,104232.19
2023-01-24T07:31:38.387Z,104233.91
2023-01-24T07:33:40.219Z,104243.72
2023-01-24T07:35:43.822Z,104246.41
2023-01-24T07:37:46.953Z,104248.16
2023-01-24T07:39:49.155Z,104243.66
2023-01-24T07:41:51.853Z,104246.34
2023-01-24T07:43:53.506Z,104246.34
2023-01-24T07:45:56.371Z,104254.41
2023-01-24T07:47:59.655Z,104249.91
2023-01-24T07:50:01.210Z,104246.25
2023-01-24T07:52:02.925Z,104250.78
2023-01-24T07:54:06.007Z,104261.47
2023-01-24T07:56:10.396Z,104260.59
2023-01-24T07:58:16.534Z,104257.03
2023-01-24T08:00:19.280Z,104257.91
2023-01-24T08:02:21.065Z,104256.09
2023-01-24T08:04:23.643Z,104264.09
2023-01-24T08:06:27.753Z,104259.59
2023-01-24T08:08:29.358Z,104266.69
2023-01-24T08:10:32.745Z,104272.00
2023-01-24T08:12:34.417Z,104271.13
2023-01-24T08:14:36.237Z,104278.25
2023-01-24T08:16:39.286Z,104276.50
2023-01-24T08:18:41.604Z,104275.56
2023-01-24T08:20:43.322Z,104284.53
2023-01-24T08:22:56.916Z,104287.22
2023-01-24T08:24:59.415Z,104281.84
2023-01-24T08:27:03.610Z,104296.13
2023-01-24T08:29:05.399Z,104292.59
2023-01-24T08:31:07.319Z,104292.50
2023-01-24T08:33:10.276Z,104297.81
2023-01-24T08:35:12.064Z,104296.88
2023-01-24T08:37:13.683Z,104297.72
2023-01-24T08:39:21.125Z,104296.78
2023-01-24T08:41:29.629Z,104292.28
2023-01-24T08:43:33.057Z,104293.06
2023-01-24T08:45:35.284Z,104294.03
2023-01-24T08:47:36.812Z,104294.09
2023-01-24T08:49:38.853Z,104294.03
2023-01-24T08:51:41.907Z,104283.28
2023-01-24T08:53:43.490Z,104278.69
2023-01-24T08:55:45.143Z,104292.06
2023-01-24T08:57:47.193Z,104291.19
2023-01-24T08:59:50.160Z,104283.03
2023-01-24T09:01:51.806Z,104280.28
2023-01-24T09:03:53.738Z,104283.84
2023-01-24T09:05:57.094Z,104292.69
2023-01-24T09:07:59.014Z,104293.56
2023-01-24T09:10:00.961Z,104289.88
2023-01-24T09:12:02.957Z,104296.03
2023-01-24T09:14:05.074Z,104297.81
2023-01-24T09:16:08.586Z,104303.97
2023-01-24T09:18:10.817Z,104303.91
2023-01-24T09:20:12.951Z,104301.13
2023-01-24T09:22:14.562Z,104301.06
2023-01-24T09:24:17.669Z,104299.25
2023-01-24T09:26:19.415Z,104297.44
2023-01-24T09:28:22.455Z,104292.03
2023-01-24T09:30:27.682Z,104295.53
2023-01-24T09:32:31.015Z,104289.19
2023-01-24T09:34:32.656Z,104295.47
2023-01-24T09:36:34.444Z,104283.72
2023-01-24T09:38:36.230Z,104285.47
2023-01-24T09:40:49.074Z,104284.53
2023-01-24T09:43:02.916Z,104292.50
2023-01-24T09:45:17.365Z,104298.78
2023-01-24T09:47:24.682Z,104293.38
2023-01-24T09:49:39.710Z,104292.38
2023-01-24T09:51:46.673Z,104303.94
2023-01-24T09:53:52.730Z,104298.50
2023-01-24T09:55:54.489Z,104288.50
2023-01-24T09:58:00.039Z,104298.22
2023-01-24T10:00:05.304Z,104299.91
2023-01-24T10:02:19.630Z,104294.44
2023-01-24T10:04:26.667Z,104294.44
2023-01-24T10:06:31.533Z,104284.47
2023-01-24T10:08:41.007Z,104290.75
2023-01-24T10:10:51.528Z,104286.13
2023-01-24T10:13:01.890Z,104285.19
2023-01-24T10:15:18.611Z,104282.41
2023-01-24T10:17:37.011Z,104278.88
2023-01-24T10:20:15.526Z,104276.91
2023-01-24T10:22:36.682Z,104276.78
2023-01-24T10:24:44.999Z,104276.78
2023-01-24T10:26:50.522Z,104280.31
2023-01-24T10:28:54.239Z,104277.50
2023-01-24T10:31:05.516Z,104277.34
2023-01-24T10:33:16.683Z,104278.16
2023-01-24T10:35:24.522Z,104271.84
2023-01-24T10:37:32.642Z,104270.84
2023-01-24T10:39:37.678Z,104266.28
2023-01-24T10:41:40.056Z,104259.94
2023-01-24T10:43:45.667Z,104262.56
2023-01-24T10:46:01.656Z,104254.41
2023-01-24T10:48:12.371Z,104258.75
2023-01-24T10:50:16.400Z,104246.16
2023-01-24T10:52:19.432Z,104259.47
2023-01-24T10:54:22.541Z,104251.31
2023-01-24T10:56:24.306Z,104252.09
2023-01-24T10:58:27.587Z,104251.03
2023-01-24T11:00:35.148Z,104259.00
2023-01-24T11:02:38.188Z,104258.88
2023-01-24T11:04:40.243Z,104257.88
2023-01-24T11:06:47.786Z,104260.47
2023-01-24T11:08:54.582Z,104269.38
2023-01-24T11:10:58.615Z,104269.25
2023-01-24T11:13:02.679Z,104265.69
2023-01-24T11:15:05.231Z,104261.19
2023-01-24T11:17:31.322Z,104260.13
2023-01-24T11:19:35.589Z,104266.50
2023-01-24T11:21:51.516Z,104259.28
2023-01-24T11:24:01.585Z,104245.72
2023-01-24T11:26:06.916Z,104250.16
2023-01-24T11:28:25.400Z,104249.06
2023-01-24T11:30:27.951Z,104241.91
2023-01-24T11:32:41.583Z,104247.13
2023-01-24T11:34:55.991Z,104246.19
2023-01-24T11:37:11.352Z,104237.06
2023-01-24T11:39:22.216Z,104231.66
2023-01-24T11:41:31.650Z,104226.28
2023-01-24T11:44:17.805Z,104215.41
2023-01-24T11:46:37.462Z,104212.78
2023-01-24T11:48:48.738Z,104205.69
2023-01-24T11:51:12.829Z,104209.22
2023-01-24T11:53:38.323Z,104203.00
2023-01-24T11:55:53.972Z,104202.19
2023-01-24T11:58:09.406Z,104200.53
2023-01-24T12:00:26.085Z,104197.75
2023-01-24T12:02:42.725Z,104200.53
2023-01-24T12:05:04.814Z,104192.34
2023-01-24T12:07:10.946Z,104184.38
2023-01-24T12:09:20.127Z,104184.38
2023-01-24T12:11:35.726Z,104188.88
2023-01-24T12:13:48.250Z,104188.13
2023-01-24T12:16:05.302Z,104192.34
2023-01-24T12:18:29.901Z,104186.91
2023-01-24T12:20:46.692Z,104185.94
2023-01-24T12:22:49.317Z,104180.44
2023-01-24T12:24:56.675Z,104191.94
2023-01-24T12:27:01.862Z,104190.91
2023-01-24T12:29:12.325Z,104190.75
2023-01-24T12:31:19.730Z,104187.00
2023-01-24T12:33:28.567Z,104173.44
2023-01-24T12:35:34.930Z,104182.31
2023-01-24T12:37:43.585Z,104172.31
2023-01-24T12:39:52.008Z,104168.66
2023-01-24T12:42:00.713Z,104168.59
2023-01-24T12:44:16.467Z,104166.75
2023-01-24T12:46:26.200Z,104163.97
2023-01-24T12:48:37.621Z,104170.22
2023-01-24T12:50:44.764Z,104167.53
2023-01-24T12:52:55.978Z,104171.09
2023-01-24T12:55:02.820Z,104171.03
2023-01-24T12:57:18.119Z,104162.00
2023-01-24T12:59:25.540Z,104164.69
2023-01-24T13:02:04.698Z,104167.09
2023-01-24T13:04:20.340Z,104149.22
2023-01-24T13:06:33.451Z,104143.88
2023-01-24T13:08:45.499Z,104141.25
2023-01-24T13:10:59.135Z,104139.53
2023-01-24T13:13:03.396Z,104147.63
2023-01-24T13:15:17.924Z,104145.97
2023-01-24T13:17:35.082Z,104148.75
2023-01-24T13:19:49.147Z,104134.47
2023-01-24T13:21:56.406Z,104144.50
2023-01-24T13:24:12.566Z,104134.66
2023-01-24T13:26:40.679Z,104127.50
2023-01-24T13:28:57.555Z,104130.13
2023-01-24T13:31:13.146Z,104141.88
2023-01-24T13:33:19.051Z,104132.91
2023-01-24T13:35:23.246Z,104135.78
2023-01-24T13:37:27.576Z,104134.84
2023-01-24T13:39:33.722Z,104140.22
2023-01-24T13:41:38.871Z,104132.22
2023-01-24T13:43:56.510Z,104133.09
2023-01-24T13:45:58.139Z,104135.00
2023-01-24T13:48:02.321Z,104133.19
2023-01-24T13:50:18.863Z,104130.50
2023-01-24T13:52:43.398Z,104138.59
2023-01-24T13:54:45.895Z,104137.72
2023-01-24T13:57:22.156Z,104141.34
2023-01-24T13:59:23.824Z,104138.72
2023-01-24T14:01:27.180Z,104144.28
2023-01-24T14:03:34.254Z,104132.75
2023-01-24T14:05:43.553Z,104150.03
2023-01-24T14:07:45.279Z,104134.81
2023-01-24T14:09:47.979Z,104149.22
2023-01-24T14:12:01.651Z,104144.81
2023-01-24T14:14:26.585Z,104138.44
2023-01-24T14:16:57.743Z,104140.38
2023-01-24T14:19:13.177Z,104144.13
2023-01-24T14:21:15.421Z,104140.72
2023-01-24T14:23:22.140Z,104132.78
2023-01-24T14:25:41.456Z,104140.03
2023-01-24T14:27:49.613Z,104144.59
2023-01-24T14:29:58.760Z,104148.34
2023-01-24T14:32:01.397Z,104152.16
2023-01-24T14:34:14.839Z,104150.41
2023-01-24T14:36:31.221Z,104147.81
2023-01-24T14:38:32.885Z,104154.22
2023-01-24T14:40:34.951Z,104155.34
2023-01-24T14:42:36.902Z,104148.31
2023-01-24T14:44:40.818Z,104150.28
2023-01-24T14:46:42.508Z,104153.94
2023-01-24T14:48:44.147Z,104153.22
2023-01-24T14:50:57.743Z,104149.66
2023-01-24T14:53:01.781Z,104159.72
2023-01-24T14:55:31.824Z,104157.84
2023-01-24T14:57:34.356Z,104152.69
2023-01-24T14:59:36.001Z,104148.19
2023-01-24T15:01:38.273Z,104149.06
2023-01-24T15:03:40.016Z,104140.28
2023-01-24T15:05:52.446Z,104142.97
2023-01-24T15:07:54.858Z,104143.97
2023-01-24T15:09:56.581Z,104151.22
2023-01-24T15:11:58.315Z,104147.63
2023-01-24T15:14:01.951Z,104137.00
2023-01-24T15:16:05.645Z,104141.56
2023-01-24T15:18:20.647Z,104144.31
2023-01-24T15:20:23.735Z,104139.97
2023-01-24T15:22:28.818Z,104135.59
2023-01-24T15:24:32.270Z,104129.38
2023-01-24T15:26:40.008Z,104134.81
2023-01-24T15:28:41.538Z,104130.47
2023-01-24T15:30:51.782Z,104129.66
2023-01-24T15:33:01.903Z,104129.78
2023-01-24T15:35:38.602Z,104123.56
2023-01-24T15:37:41.868Z,104130.06
2023-01-24T15:39:44.865Z,104124.06
2023-01-24T15:41:46.724Z,104122.41
2023-01-24T15:43:55.097Z,104110.03
2023-01-24T15:45:57.133Z,104126.34
2023-01-24T15:48:22.479Z,104119.22
2023-01-24T15:50:24.844Z,104131.97
2023-01-24T15:52:26.579Z,104126.69
2023-01-24T15:54:30.384Z,104122.34
2023-01-24T15:56:35.771Z,104127.72
2023-01-24T15:58:37.971Z,104123.34
2023-01-24T16:00:39.971Z,104126.97
2023-01-24T16:02:41.813Z,104124.38
2023-01-24T16:04:43.671Z,104122.63
2023-01-24T16:06:46.369Z,104120.88
2023-01-24T16:08:48.796Z,104116.53
2023-01-24T16:10:53.058Z,104116.53
2023-01-24T16:12:54.697Z,104122.78
2023-01-24T16:15:08.157Z,104124.72
2023-01-24T16:17:11.831Z,104118.50
2023-01-24T16:19:16.224Z,104119.56
2023-01-24T16:21:17.742Z,104118.75
2023-01-24T16:23:19.752Z,104126.03
2023-01-24T16:25:23.389Z,104120.72
2023-01-24T16:27:32.451Z,104133.44
2023-01-24T16:29:34.823Z,104132.72
2023-01-24T16:31:39.475Z,104141.84
2023-01-24T16:33:41.384Z,104133.94
2023-01-24T16:35:43.465Z,104136.75
2023-01-24T16:37:53.133Z,104136.91
2023-01-24T16:39:57.074Z,104132.56
2023-01-24T16:42:03.149Z,104128.13
2023-01-24T16:44:06.181Z,104130.03
2023-01-24T16:46:21.834Z,104135.41
2023-01-24T16:48:23.426Z,104126.53
2023-01-24T16:50:25.636Z,104126.63
2023-01-24T16:52:27.297Z,104121.16
2023-01-24T16:54:28.922Z,104121.25
2023-01-24T16:56:30.913Z,104121.25
2023-01-24T16:58:33.842Z,104120.38
2023-01-24T17:00:39.652Z,104116.81
2023-01-24T17:02:42.331Z,104121.41
2023-01-24T17:04:44.011Z,104128.59
2023-01-24T17:06:45.611Z,104127.72
2023-01-24T17:08:51.512Z,104122.41
2023-01-24T17:10:53.028Z,104128.75
2023-01-24T17:12:54.786Z,104123.44
2023-01-24T17:14:56.721Z,104120.75
2023-01-24T17:17:01.091Z,104121.69
2023-01-24T17:19:02.918Z,104120.91
2023-01-24T17:21:06.671Z,104117.41
2023-01-24T17:23:08.310Z,104113.81
2023-01-24T17:25:10.532Z,104119.31
2023-01-24T17:27:12.379Z,104111.25
2023-01-24T17:29:14.166Z,104111.28
2023-01-24T17:31:18.303Z,104109.63
2023-01-24T17:33:21.365Z,104107.88
2023-01-24T17:35:22.881Z,104102.59
2023-01-24T17:37:25.844Z,104099.97
2023-01-24T17:39:27.491Z,104102.72
2023-01-24T17:41:29.200Z,104095.69
2023-01-24T17:43:38.163Z,104101.06
2023-01-24T17:45:50.917Z,104094.81
2023-01-24T17:47:52.534Z,104102.09
2023-01-24T17:49:55.812Z,104107.47
2023-01-24T17:51:57.410Z,104111.09
2023-01-24T17:53:59.554Z,104114.66
2023-01-24T17:56:01.270Z,104116.47
2023-01-24T17:58:02.868Z,104118.28
2023-01-24T18:00:05.389Z,104133.53
2023-01-24T18:02:07.257Z,104126.34
2023-01-24T18:04:09.074Z,104122.88
2023-01-24T18:06:13.097Z,104127.38
2023-01-24T18:08:14.976Z,104129.19
2023-01-24T18:10:18.650Z,104121.13
2023-01-24T18:12:20.231Z,104118.44
2023-01-24T18:14:22.138Z,104125.63
2023-01-24T18:16:24.210Z,104128.41
2023-01-24T18:18:25.997Z,104127.59
2023-01-24T18:20:27.681Z,104121.34
2023-01-24T18:22:30.702Z,104122.38
2023-01-24T18:24:34.400Z,104125.13
2023-01-24T18:26:36.169Z,104125.22
2023-01-24T18:28:37.884Z,104136.00
2023-01-24T18:30:39.697Z,104133.47
2023-01-24T18:32:41.537Z,104134.50
2023-01-24T18:34:43.548Z,104137.25
2023-01-24T18:36:45.231Z,104138.19
2023-01-24T18:38:48.491Z,104142.75
2023-01-24T18:40:50.340Z,104136.56
2023-01-24T18:42:51.912Z,104142.03
2023-01-24T18:44:53.649Z,104147.47
2023-01-24T18:46:55.196Z,104143.91
2023-01-24T18:48:56.887Z,104146.69
2023-01-24T18:50:58.487Z,104144.06
2023-01-24T18:53:00.125Z,104150.31
2023-01-24T18:55:03.223Z,104147.63
2023-01-24T18:57:06.224Z,104151.22
2023-01-24T18:59:07.835Z,104153.06
2023-01-24T19:03:15.495Z,104151.22
2023-01-24T19:05:17.110Z,104139.72
2023-01-24T19:07:18.889Z,104138.84
2023-01-24T19:09:20.457Z,104128.09
2023-01-24T19:11:24.171Z,104134.34
2023-01-24T19:13:25.919Z,104136.16
2023-01-24T19:15:28.272Z,104140.63
2023-01-24T19:17:29.881Z,104140.63
2023-01-24T19:19:31.526Z,104131.72
2023-01-24T19:21:33.583Z,104143.41
2023-01-24T19:23:36.363Z,104143.41
2023-01-24T19:25:37.892Z,104136.28
2023-01-24T19:27:41.108Z,104142.59
2023-01-24T19:29:42.937Z,104136.44
2023-01-24T19:31:44.742Z,104147.25
2023-01-24T19:33:48.601Z,104147.31
2023-01-24T19:35:50.665Z,104145.56
2023-01-24T19:37:52.485Z,104151.88
2023-01-24T19:39:54.373Z,104149.19
2023-01-24T19:41:55.934Z,104150.06
2023-01-24T19:46:21.227Z,104158.13
2023-01-24T19:48:22.966Z,104157.19
2023-01-24T19:50:24.724Z,104158.06
2023-01-24T19:52:26.468Z,104158.91
2023-01-24T19:54:28.177Z,104161.69
2023-01-24T19:56:29.804Z,104159.00
2023-01-24T19:58:31.554Z,104156.31
2023-01-24T20:00:35.296Z,104156.38
2023-01-24T20:02:36.903Z,104156.38
2023-01-24T20:04:51.471Z,104151.97
2023-01-24T20:06:54.762Z,104151.97
2023-01-24T20:08:57.121Z,104147.44
2023-01-24T20:10:58.970Z,104150.28
2023-01-24T20:13:01.037Z,104147.53
2023-01-24T20:15:03.578Z,104151.16
2023-01-24T20:17:06.657Z,104161.88
2023-01-24T20:19:18.470Z,104158.31
2023-01-24T20:21:31.153Z,104155.63
2023-01-24T20:23:34.089Z,104157.44
2023-01-24T20:25:39.662Z,104153.88
2023-01-24T20:27:41.408Z,104151.19
2023-01-24T20:29:42.997Z,104146.81
2023-01-24T20:31:44.662Z,104141.47
2023-01-24T20:33:48.803Z,104145.09
2023-01-24T20:35:58.439Z,104137.91
2023-01-24T20:38:01.217Z,104138.94
2023-01-24T20:40:03.490Z,104137.13
2023-01-24T20:42:05.221Z,104140.75
2023-01-24T20:44:08.565Z,104141.63
2023-01-24T20:46:15.217Z,104134.44
2023-01-24T20:48:16.835Z,104146.13
2023-01-24T20:50:19.812Z,104131.75
2023-01-24T20:52:22.090Z,104128.16
2023-01-24T20:54:24.383Z,104130.84
2023-01-24T20:56:27.743Z,104127.28
2023-01-24T20:58:32.228Z,104127.19
2023-01-24T21:00:34.020Z,104129.97
2023-01-24T21:02:36.636Z,104134.44
2023-01-24T21:04:38.443Z,104127.34
2023-01-24T21:06:41.679Z,104129.13
2023-01-24T21:08:44.707Z,104126.44
2023-01-24T21:10:47.167Z,104124.72
2023-01-24T21:12:48.700Z,104127.41
2023-01-24T21:14:50.498Z,104120.28
2023-01-24T21:16:52.125Z,104123.03
2023-01-24T21:18:55.484Z,104128.41
2023-01-24T21:20:58.086Z,104121.28
2023-01-24T21:23:01.483Z,104121.28
2023-01-24T21:25:03.673Z,104124.13
2023-01-24T21:27:05.514Z,104129.63
2023-01-24T21:29:07.369Z,104124.34
2023-01-24T21:31:12.252Z,104129.72
2023-01-24T21:33:14.071Z,104120.91
2023-01-24T21:35:15.597Z,104122.66
2023-01-24T21:37:28.002Z,104120.06
2023-01-24T21:39:31.796Z,104121.88
2023-01-24T21:41:33.400Z,104115.66
2023-01-24T21:43:37.401Z,104118.44
2023-01-24T21:45:39.207Z,104111.31
2023-01-24T21:47:41.279Z,104105.38
2023-01-24T21:49:42.829Z,104114.28
2023-01-24T21:51:46.226Z,104106.31
2023-01-24T21:53:48.291Z,104110.00
2023-01-24T21:55:51.456Z,104105.63
2023-01-24T21:57:53.114Z,104106.59
2023-01-24T21:59:54.882Z,104099.53
2023-01-24T22:01:58.316Z,104091.63
2023-01-24T22:04:00.075Z,104084.59
2023-01-24T22:06:04.768Z,104083.72
2023-01-24T22:08:06.806Z,104080.22
2023-01-24T22:10:09.257Z,104076.81
2023-01-24T22:12:12.378Z,104078.63
2023-01-24T22:14:17.077Z,104077.88
2023-01-24T22:16:19.282Z,104077.94
2023-01-24T22:18:21.390Z,104066.47
2023-01-24T22:20:23.414Z,104063.81
2023-01-24T22:22:59.215Z,104050.34
2023-01-24T22:25:11.236Z,104044.22
2023-01-24T22:27:16.813Z,104038.94
2023-01-24T22:29:18.877Z,104035.50
2023-01-24T22:31:21.110Z,104042.72
2023-01-24T22:33:23.427Z,104044.63
2023-01-24T22:35:27.225Z,104042.88
2023-01-24T22:37:32.075Z,104042.97
2023-01-24T22:39:33.720Z,104039.47
2023-01-24T22:41:35.476Z,104033.31
2023-01-24T22:43:38.790Z,104043.06
2023-01-24T22:45:40.619Z,104047.63
2023-01-24T22:47:42.338Z,104044.09
2023-01-24T22:49:44.388Z,104054.03
2023-01-24T22:51:46.364Z,104054.94
2023-01-24T22:53:47.973Z,104063.03
2023-01-24T22:55:49.513Z,104068.50
2023-01-24T22:57:51.085Z,104058.66
2023-01-24T22:59:54.071Z,104052.41
2023-01-24T23:01:55.887Z,104058.69
2023-01-24T23:03:57.619Z,104059.63
2023-01-24T23:06:07.063Z,104047.97
2023-01-24T23:08:09.068Z,104047.19
2023-01-24T23:10:11.504Z,104041.81
2023-01-24T23:12:13.363Z,104047.22
2023-01-24T23:14:17.719Z,104047.28
2023-01-24T23:16:27.203Z,104042.88
2023-01-24T23:18:28.947Z,104026.06
2023-01-24T23:20:30.732Z,104031.47
2023-01-24T23:22:34.301Z,104030.59
2023-01-24T23:24:36.107Z,104023.50
2023-01-24T23:26:37.870Z,104019.97
2023-01-24T23:28:42.631Z,104015.53
2023-01-24T23:30:53.455Z,104018.22
2023-01-24T23:33:01.768Z,104020.03
2023-01-24T23:35:09.208Z,104016.47
2023-01-24T23:37:11.105Z,104012.03
2023-01-24T23:39:13.107Z,104013.00
2023-01-24T23:41:14.991Z,104008.63
2023-01-24T23:43:16.667Z,104008.63
2023-01-24T23:45:20.597Z,104007.78
2023-01-24T23:47:22.486Z,104005.16
2023-01-24T23:49:25.671Z,103996.16
2023-01-24T23:51:27.298Z,103989.06